Aérodrome :
LOGIN :

S'inscrire | Disclaimer

   EN    FR    IT 

 










Légende :    VFR   VFR Marginal   IFR   IFR Intensif   IFR Très Intensif
Visi : 
Plafond : 
>= 8 km
>= 3000ft
5 à 8 km
1000 à 3000 ft
1500m à 5 km
500 à 1000 ft
800 à 1500m
200 à 500 ft
< 800m
< 200 ft
Symboles :   Orages  Brouillard  Fortes neiges  Fortes précipitations  Vent > 20 kt
SIGMETs :   Divers  Orages  Givrage  Turbulence  Onde Orograph.  Cendres Volcan.







- Altitude de l'aérodrome : 463 ft
- Code IATA : SZY
- AEROPORT FERMÉ.


EPSY - Szczytno

DERNIER METAR :
  • 221400Z 27009KT 210V310 9999 FEW043 15/06 Q1014

METARs EXPIRÉS :
  • 221300Z 24012KT 210V280 CAVOK 16/06 Q1014
  • 221230Z 25013KT 220V280 9999 FEW040 15/05 Q1014
  • 221200Z 26012KT 9999 SCT042 15/05 Q1014
  • 221130Z 25014KT 210V300 9999 SCT044 15/05 Q1014

TAF TAF EPSY
Valide du 22 à 15h jusqu'au 23 à 00h UTC


221430Z 2215/2224 25012KT 9999 SCT040
PROB30
TEMPO 2215/2220 26015G26KT -SHRA BKN030CB
Pas de NOTAMs connus pour ce terrain.



MET'MAP, la Météo Aéronautique d'un coup d'oeil ! - Copyright ORBIFLY Décembre 2007 - Disclaimer

ORBIFLY MET'MAP TEAM :

Programmation & Développement : Alexandra Zaïnal
Conception & Développement : Baudouin d'Aumeries
Co-Programmation & Développement : Marc-Olivier Méhu
Soutien technique & logistique : Manuel Goepfert

Contact : metmap@orbifly.com




SOURCES & CREDITS :

   NOAA